sensor_id;sensor_type;location;lat;lon;timestamp;temperature;humidity
11152;DHT22;5630;49.342;10.802;2022-09-03T00:01:58;13.60;99.90
11152;DHT22;5630;49.342;10.802;2022-09-03T00:04:54;13.50;99.90
11152;DHT22;5630;49.342;10.802;2022-09-03T00:11:09;13.50;99.90
11152;DHT22;5630;49.342;10.802;2022-09-03T00:13:13;13.40;99.90
11152;DHT22;5630;49.342;10.802;2022-09-03T00:15:40;13.40;99.90
11152;DHT22;5630;49.342;10.802;2022-09-03T00:18:13;13.40;99.90
11152;DHT22;5630;49.342;10.802;2022-09-03T00:20:44;13.30;99.90
11152;DHT22;5630;49.342;10.802;2022-09-03T00:23:17;13.40;99.90
11152;DHT22;5630;49.342;10.802;2022-09-03T00:28:26;13.30;99.90
11152;DHT22;5630;49.342;10.802;2022-09-03T00:31:10;13.30;99.90
11152;DHT22;5630;49.342;10.802;2022-09-03T00:33:40;13.30;99.90
11152;DHT22;5630;49.342;10.802;2022-09-03T00:36:14;13.20;99.90
11152;DHT22;5630;49.342;10.802;2022-09-03T00:38:40;13.20;99.90
11152;DHT22;5630;49.342;10.802;2022-09-03T00:41:29;13.20;99.90
11152;DHT22;5630;49.342;10.802;2022-09-03T00:47:01;13.10;99.90
11152;DHT22;5630;49.342;10.802;2022-09-03T00:49:35;13.10;99.90
11152;DHT22;5630;49.342;10.802;2022-09-03T00:54:54;13.00;99.90
11152;DHT22;5630;49.342;10.802;2022-09-03T00:57:26;12.90;99.90
11152;DHT22;5630;49.342;10.802;2022-09-03T01:00:10;12.90;99.90
11152;DHT22;5630;49.342;10.802;2022-09-03T01:05:34;12.90;99.90
11152;DHT22;5630;49.342;10.802;2022-09-03T01:14:20;12.80;99.90
11152;DHT22;5630;49.342;10.802;2022-09-03T01:17:15;12.80;99.90
11152;DHT22;5630;49.342;10.802;2022-09-03T01:20:02;12.80;99.90
11152;DHT22;5630;49.342;10.802;2022-09-03T01:28:15;12.70;99.90
11152;DHT22;5630;49.342;10.802;2022-09-03T01:30:50;12.70;99.90
11152;DHT22;5630;49.342;10.802;2022-09-03T01:38:29;12.60;99.90
11152;DHT22;5630;49.342;10.802;2022-09-03T01:41:29;12.60;99.90
11152;DHT22;5630;49.342;10.802;2022-09-03T01:50:31;12.60;99.90
11152;DHT22;5630;49.342;10.802;2022-09-03T01:53:06;12.60;99.90
11152;DHT22;5630;49.342;10.802;2022-09-03T01:58:36;12.60;99.90
11152;DHT22;5630;49.342;10.802;2022-09-03T02:01:13;12.60;99.90
11152;DHT22;5630;49.342;10.802;2022-09-03T02:03:41;12.60;99.90
11152;DHT22;5630;49.342;10.802;2022-09-03T02:06:10;12.50;99.90
11152;DHT22;5630;49.342;10.802;2022-09-03T02:08:36;12.50;99.90
11152;DHT22;5630;49.342;10.802;2022-09-03T02:11:06;12.40;99.90
11152;DHT22;5630;49.342;10.802;2022-09-03T02:13:46;12.40;99.90
11152;DHT22;5630;49.342;10.802;2022-09-03T02:16:24;12.40;99.90
11152;DHT22;5630;49.342;10.802;2022-09-03T02:18:58;12.40;99.90
11152;DHT22;5630;49.342;10.802;2022-09-03T02:21:32;12.40;99.90
11152;DHT22;5630;49.342;10.802;2022-09-03T02:23:59;12.30;99.90
11152;DHT22;5630;49.342;10.802;2022-09-03T02:26:25;12.30;99.90
11152;DHT22;5630;49.342;10.802;2022-09-03T02:28:52;12.30;99.90
11152;DHT22;5630;49.342;10.802;2022-09-03T02:31:19;12.20;99.90
11152;DHT22;5630;49.342;10.802;2022-09-03T02:33:47;12.30;99.90
11152;DHT22;5630;49.342;10.802;2022-09-03T02:36:15;12.20;99.90
11152;DHT22;5630;49.342;10.802;2022-09-03T02:38:43;12.20;99.90
11152;DHT22;5630;49.342;10.802;2022-09-03T02:41:09;12.20;99.90
11152;DHT22;5630;49.342;10.802;2022-09-03T02:46:13;12.20;99.90
11152;DHT22;5630;49.342;10.802;2022-09-03T02:48:41;12.10;99.90
11152;DHT22;5630;49.342;10.802;2022-09-03T02:51:07;12.10;99.90
11152;DHT22;5630;49.342;10.802;2022-09-03T02:53:32;12.10;99.90
11152;DHT22;5630;49.342;10.802;2022-09-03T02:55:59;12.10;99.90
11152;DHT22;5630;49.342;10.802;2022-09-03T02:58:25;12.00;99.90
11152;DHT22;5630;49.342;10.802;2022-09-03T03:00:51;12.00;99.90
11152;DHT22;5630;49.342;10.802;2022-09-03T03:03:17;12.00;99.90
11152;DHT22;5630;49.342;10.802;2022-09-03T03:05:44;11.90;99.90
11152;DHT22;5630;49.342;10.802;2022-09-03T03:08:12;11.90;99.90
11152;DHT22;5630;49.342;10.802;2022-09-03T03:10:40;11.90;99.90
11152;DHT22;5630;49.342;10.802;2022-09-03T03:13:07;11.90;99.90
11152;DHT22;5630;49.342;10.802;2022-09-03T03:17:59;11.90;99.90
11152;DHT22;5630;49.342;10.802;2022-09-03T03:20:24;11.90;99.90
11152;DHT22;5630;49.342;10.802;2022-09-03T03:22:50;11.80;99.90
11152;DHT22;5630;49.342;10.802;2022-09-03T03:25:15;11.80;99.90
11152;DHT22;5630;49.342;10.802;2022-09-03T03:27:41;11.80;99.90
11152;DHT22;5630;49.342;10.802;2022-09-03T03:30:09;11.80;99.90
11152;DHT22;5630;49.342;10.802;2022-09-03T03:32:38;11.80;99.90
11152;DHT22;5630;49.342;10.802;2022-09-03T03:35:05;11.70;99.90
11152;DHT22;5630;49.342;10.802;2022-09-03T03:37:32;11.70;99.90
11152;DHT22;5630;49.342;10.802;2022-09-03T03:42:23;11.70;99.90
11152;DHT22;5630;49.342;10.802;2022-09-03T03:44:49;11.60;99.90
11152;DHT22;5630;49.342;10.802;2022-09-03T03:47:15;11.60;99.90
11152;DHT22;5630;49.342;10.802;2022-09-03T03:49:43;11.60;99.90
11152;DHT22;5630;49.342;10.802;2022-09-03T03:52:09;11.60;99.90
11152;DHT22;5630;49.342;10.802;2022-09-03T03:54:35;11.60;99.90
11152;DHT22;5630;49.342;10.802;2022-09-03T03:57:00;11.60;99.90
11152;DHT22;5630;49.342;10.802;2022-09-03T03:59:26;11.60;99.90
11152;DHT22;5630;49.342;10.802;2022-09-03T04:01:53;11.60;99.90
11152;DHT22;5630;49.342;10.802;2022-09-03T04:04:19;11.60;99.90
11152;DHT22;5630;49.342;10.802;2022-09-03T04:06:45;11.70;99.90
11152;DHT22;5630;49.342;10.802;2022-09-03T04:09:10;11.60;99.90
11152;DHT22;5630;49.342;10.802;2022-09-03T04:11:36;11.60;99.90
11152;DHT22;5630;49.342;10.802;2022-09-03T04:14:02;11.60;99.90
11152;DHT22;5630;49.342;10.802;2022-09-03T04:16:28;11.60;99.90
11152;DHT22;5630;49.342;10.802;2022-09-03T04:18:54;11.60;99.90
11152;DHT22;5630;49.342;10.802;2022-09-03T04:21:22;11.70;99.90
11152;DHT22;5630;49.342;10.802;2022-09-03T04:23:49;11.60;99.90
11152;DHT22;5630;49.342;10.802;2022-09-03T04:26:23;11.60;99.90
11152;DHT22;5630;49.342;10.802;2022-09-03T04:28:49;11.60;99.90
11152;DHT22;5630;49.342;10.802;2022-09-03T04:31:17;11.60;99.90
11152;DHT22;5630;49.342;10.802;2022-09-03T04:33:43;11.60;99.90
11152;DHT22;5630;49.342;10.802;2022-09-03T04:36:17;11.60;99.90
11152;DHT22;5630;49.342;10.802;2022-09-03T04:38:44;11.60;99.90
11152;DHT22;5630;49.342;10.802;2022-09-03T04:41:12;11.60;99.90
11152;DHT22;5630;49.342;10.802;2022-09-03T04:43:38;11.70;99.90
11152;DHT22;5630;49.342;10.802;2022-09-03T04:46:06;11.60;99.90
11152;DHT22;5630;49.342;10.802;2022-09-03T04:48:33;11.60;99.90
11152;DHT22;5630;49.342;10.802;2022-09-03T04:51:05;11.60;99.90
11152;DHT22;5630;49.342;10.802;2022-09-03T04:53:35;11.70;99.90
11152;DHT22;5630;49.342;10.802;2022-09-03T04:56:02;11.60;99.90
11152;DHT22;5630;49.342;10.802;2022-09-03T04:58:28;11.70;99.90
11152;DHT22;5630;49.342;10.802;2022-09-03T05:00:53;11.70;99.90
11152;DHT22;5630;49.342;10.802;2022-09-03T05:03:19;11.70;99.90
11152;DHT22;5630;49.342;10.802;2022-09-03T05:05:55;11.70;99.90
11152;DHT22;5630;49.342;10.802;2022-09-03T05:08:22;11.70;99.90
11152;DHT22;5630;49.342;10.802;2022-09-03T05:10:48;11.70;99.90
11152;DHT22;5630;49.342;10.802;2022-09-03T05:13:13;11.70;99.90
11152;DHT22;5630;49.342;10.802;2022-09-03T05:15:39;11.80;99.90
11152;DHT22;5630;49.342;10.802;2022-09-03T05:18:06;11.80;99.90
11152;DHT22;5630;49.342;10.802;2022-09-03T05:20:32;11.80;99.90
11152;DHT22;5630;49.342;10.802;2022-09-03T05:23:01;11.80;99.90
11152;DHT22;5630;49.342;10.802;2022-09-03T05:25:28;11.90;99.90
11152;DHT22;5630;49.342;10.802;2022-09-03T05:27:57;12.00;99.90
11152;DHT22;5630;49.342;10.802;2022-09-03T05:30:23;12.00;99.90
11152;DHT22;5630;49.342;10.802;2022-09-03T05:32:49;12.10;99.90
11152;DHT22;5630;49.342;10.802;2022-09-03T05:35:16;12.10;99.90
11152;DHT22;5630;49.342;10.802;2022-09-03T05:37:42;12.20;99.90
11152;DHT22;5630;49.342;10.802;2022-09-03T05:40:08;12.30;99.90
11152;DHT22;5630;49.342;10.802;2022-09-03T05:42:38;12.30;99.90
11152;DHT22;5630;49.342;10.802;2022-09-03T05:45:08;12.40;99.90
11152;DHT22;5630;49.342;10.802;2022-09-03T05:47:36;12.40;99.90
11152;DHT22;5630;49.342;10.802;2022-09-03T05:50:06;12.50;99.90
11152;DHT22;5630;49.342;10.802;2022-09-03T05:52:33;12.50;99.90
11152;DHT22;5630;49.342;10.802;2022-09-03T05:54:59;12.60;99.90
11152;DHT22;5630;49.342;10.802;2022-09-03T05:57:24;12.60;99.90
11152;DHT22;5630;49.342;10.802;2022-09-03T05:59:50;12.70;99.90
11152;DHT22;5630;49.342;10.802;2022-09-03T06:02:16;12.70;99.90
11152;DHT22;5630;49.342;10.802;2022-09-03T06:04:43;12.80;99.90
11152;DHT22;5630;49.342;10.802;2022-09-03T06:07:09;12.90;99.90
11152;DHT22;5630;49.342;10.802;2022-09-03T06:09:34;12.90;99.90
11152;DHT22;5630;49.342;10.802;2022-09-03T06:12:00;13.00;99.90
11152;DHT22;5630;49.342;10.802;2022-09-03T06:14:25;13.10;99.90
11152;DHT22;5630;49.342;10.802;2022-09-03T06:16:51;13.10;99.90
11152;DHT22;5630;49.342;10.802;2022-09-03T06:19:17;13.20;99.90
11152;DHT22;5630;49.342;10.802;2022-09-03T06:21:45;13.30;99.90
11152;DHT22;5630;49.342;10.802;2022-09-03T06:24:15;13.40;99.90
11152;DHT22;5630;49.342;10.802;2022-09-03T06:26:41;13.40;99.90
11152;DHT22;5630;49.342;10.802;2022-09-03T06:29:07;13.60;99.90
11152;DHT22;5630;49.342;10.802;2022-09-03T06:31:33;13.70;99.90
11152;DHT22;5630;49.342;10.802;2022-09-03T06:34:00;13.80;99.90
11152;DHT22;5630;49.342;10.802;2022-09-03T06:36:25;13.90;99.90
11152;DHT22;5630;49.342;10.802;2022-09-03T06:38:53;13.90;99.90
11152;DHT22;5630;49.342;10.802;2022-09-03T06:41:21;14.00;99.90
11152;DHT22;5630;49.342;10.802;2022-09-03T06:43:52;14.20;99.90
11152;DHT22;5630;49.342;10.802;2022-09-03T06:46:21;14.30;99.90
11152;DHT22;5630;49.342;10.802;2022-09-03T06:48:47;14.40;99.90
11152;DHT22;5630;49.342;10.802;2022-09-03T06:51:15;14.60;99.90
11152;DHT22;5630;49.342;10.802;2022-09-03T06:53:43;14.70;99.90
11152;DHT22;5630;49.342;10.802;2022-09-03T06:56:11;14.70;99.90
11152;DHT22;5630;49.342;10.802;2022-09-03T06:58:39;14.80;99.90
11152;DHT22;5630;49.342;10.802;2022-09-03T07:01:13;14.90;99.90
11152;DHT22;5630;49.342;10.802;2022-09-03T07:03:40;15.00;99.90
11152;DHT22;5630;49.342;10.802;2022-09-03T07:06:11;15.10;99.90
11152;DHT22;5630;49.342;10.802;2022-09-03T07:08:37;15.30;99.90
11152;DHT22;5630;49.342;10.802;2022-09-03T07:11:06;15.50;99.90
11152;DHT22;5630;49.342;10.802;2022-09-03T07:13:42;15.60;99.90
11152;DHT22;5630;49.342;10.802;2022-09-03T07:16:13;15.90;99.90
11152;DHT22;5630;49.342;10.802;2022-09-03T07:18:39;16.00;99.90
11152;DHT22;5630;49.342;10.802;2022-09-03T07:21:08;16.10;99.90
11152;DHT22;5630;49.342;10.802;2022-09-03T07:23:35;16.20;99.90
11152;DHT22;5630;49.342;10.802;2022-09-03T07:26:04;16.10;99.90
11152;DHT22;5630;49.342;10.802;2022-09-03T07:28:30;16.10;99.90
11152;DHT22;5630;49.342;10.802;2022-09-03T07:31:02;16.20;99.90
11152;DHT22;5630;49.342;10.802;2022-09-03T07:33:29;16.30;99.90
11152;DHT22;5630;49.342;10.802;2022-09-03T07:36:00;16.30;99.90
11152;DHT22;5630;49.342;10.802;2022-09-03T07:38:26;16.40;99.90
11152;DHT22;5630;49.342;10.802;2022-09-03T07:40:59;16.50;99.90
11152;DHT22;5630;49.342;10.802;2022-09-03T07:43:26;16.60;99.90
11152;DHT22;5630;49.342;10.802;2022-09-03T07:45:53;16.50;99.90
11152;DHT22;5630;49.342;10.802;2022-09-03T07:48:22;16.50;99.90
11152;DHT22;5630;49.342;10.802;2022-09-03T07:50:47;16.60;99.90
11152;DHT22;5630;49.342;10.802;2022-09-03T07:53:15;16.50;99.90
11152;DHT22;5630;49.342;10.802;2022-09-03T07:55:42;16.50;99.90
11152;DHT22;5630;49.342;10.802;2022-09-03T07:58:08;16.60;99.90
11152;DHT22;5630;49.342;10.802;2022-09-03T08:00:36;16.60;99.90
11152;DHT22;5630;49.342;10.802;2022-09-03T08:03:01;16.60;99.90
11152;DHT22;5630;49.342;10.802;2022-09-03T08:05:32;16.60;99.90
11152;DHT22;5630;49.342;10.802;2022-09-03T08:08:02;16.60;99.90
11152;DHT22;5630;49.342;10.802;2022-09-03T08:10:28;16.60;99.90
11152;DHT22;5630;49.342;10.802;2022-09-03T08:12:56;16.60;99.90
11152;DHT22;5630;49.342;10.802;2022-09-03T08:15:22;16.60;99.90
11152;DHT22;5630;49.342;10.802;2022-09-03T08:17:48;16.60;99.90
11152;DHT22;5630;49.342;10.802;2022-09-03T08:20:13;16.60;99.90
11152;DHT22;5630;49.342;10.802;2022-09-03T08:22:39;16.60;99.90
11152;DHT22;5630;49.342;10.802;2022-09-03T08:25:06;16.60;99.90
11152;DHT22;5630;49.342;10.802;2022-09-03T08:27:32;16.70;99.90
11152;DHT22;5630;49.342;10.802;2022-09-03T08:29:57;16.70;99.90
11152;DHT22;5630;49.342;10.802;2022-09-03T08:32:23;16.70;99.90
11152;DHT22;5630;49.342;10.802;2022-09-03T08:34:48;16.70;99.90
11152;DHT22;5630;49.342;10.802;2022-09-03T08:37:16;16.70;99.90
11152;DHT22;5630;49.342;10.802;2022-09-03T08:39:43;16.80;99.90
11152;DHT22;5630;49.342;10.802;2022-09-03T08:42:25;16.90;99.90
11152;DHT22;5630;49.342;10.802;2022-09-03T08:44:59;17.00;99.90
11152;DHT22;5630;49.342;10.802;2022-09-03T08:50:07;17.30;99.90
11152;DHT22;5630;49.342;10.802;2022-09-03T09:05:47;17.60;99.90
11152;DHT22;5630;49.342;10.802;2022-09-03T09:22:21;19.60;99.90
11152;DHT22;5630;49.342;10.802;2022-09-03T09:24:49;20.90;99.90
11152;DHT22;5630;49.342;10.802;2022-09-03T09:27:17;21.00;99.90
11152;DHT22;5630;49.342;10.802;2022-09-03T09:29:47;21.30;99.90
11152;DHT22;5630;49.342;10.802;2022-09-03T09:32:14;21.60;99.90
11152;DHT22;5630;49.342;10.802;2022-09-03T09:34:41;21.70;99.90
11152;DHT22;5630;49.342;10.802;2022-09-03T09:37:13;21.90;99.90
11152;DHT22;5630;49.342;10.802;2022-09-03T09:39:40;22.00;99.90
11152;DHT22;5630;49.342;10.802;2022-09-03T09:42:08;22.00;99.90
11152;DHT22;5630;49.342;10.802;2022-09-03T09:44:41;22.30;99.90
11152;DHT22;5630;49.342;10.802;2022-09-03T09:47:25;22.30;99.90
11152;DHT22;5630;49.342;10.802;2022-09-03T09:49:58;22.20;99.90
11152;DHT22;5630;49.342;10.802;2022-09-03T09:52:26;22.20;99.90
11152;DHT22;5630;49.342;10.802;2022-09-03T09:55:05;22.30;99.90
11152;DHT22;5630;49.342;10.802;2022-09-03T09:57:33;22.50;99.90
11152;DHT22;5630;49.342;10.802;2022-09-03T10:00:13;22.50;99.90
11152;DHT22;5630;49.342;10.802;2022-09-03T10:02:49;22.40;99.90
11152;DHT22;5630;49.342;10.802;2022-09-03T10:05:24;22.30;99.90
11152;DHT22;5630;49.342;10.802;2022-09-03T10:07:58;22.20;99.90
11152;DHT22;5630;49.342;10.802;2022-09-03T10:10:24;22.50;99.90
11152;DHT22;5630;49.342;10.802;2022-09-03T10:12:57;22.60;99.90
11152;DHT22;5630;49.342;10.802;2022-09-03T10:20:41;23.40;99.90
11152;DHT22;5630;49.342;10.802;2022-09-03T10:23:19;23.50;99.90
11152;DHT22;5630;49.342;10.802;2022-09-03T10:26:24;23.70;99.90
11152;DHT22;5630;49.342;10.802;2022-09-03T10:29:01;23.80;99.90
11152;DHT22;5630;49.342;10.802;2022-09-03T10:31:35;23.80;99.90
11152;DHT22;5630;49.342;10.802;2022-09-03T10:37:00;23.70;99.90
11152;DHT22;5630;49.342;10.802;2022-09-03T10:39:42;23.80;99.90
11152;DHT22;5630;49.342;10.802;2022-09-03T10:45:26;24.30;99.90
11152;DHT22;5630;49.342;10.802;2022-09-03T10:48:06;24.60;99.90
11152;DHT22;5630;49.342;10.802;2022-09-03T10:50:45;24.90;99.90
11152;DHT22;5630;49.342;10.802;2022-09-03T11:05:07;25.50;99.90
11152;DHT22;5630;49.342;10.802;2022-09-03T11:08:00;25.30;99.90
11152;DHT22;5630;49.342;10.802;2022-09-03T11:10:36;25.40;99.90
11152;DHT22;5630;49.342;10.802;2022-09-03T11:13:08;25.40;99.90
11152;DHT22;5630;49.342;10.802;2022-09-03T11:15:41;25.30;99.90
11152;DHT22;5630;49.342;10.802;2022-09-03T11:18:21;25.30;99.90
11152;DHT22;5630;49.342;10.802;2022-09-03T11:20:50;25.30;99.90
11152;DHT22;5630;49.342;10.802;2022-09-03T11:23:18;25.40;99.90
11152;DHT22;5630;49.342;10.802;2022-09-03T11:25:54;25.50;99.90
11152;DHT22;5630;49.342;10.802;2022-09-03T11:28:38;25.60;99.90
11152;DHT22;5630;49.342;10.802;2022-09-03T11:33:46;25.40;99.90
11152;DHT22;5630;49.342;10.802;2022-09-03T11:36:24;25.30;99.90
11152;DHT22;5630;49.342;10.802;2022-09-03T11:38:52;25.30;99.90
11152;DHT22;5630;49.342;10.802;2022-09-03T11:41:26;25.40;99.90
11152;DHT22;5630;49.342;10.802;2022-09-03T11:43:52;25.60;99.90
11152;DHT22;5630;49.342;10.802;2022-09-03T11:48:52;25.80;99.90
11152;DHT22;5630;49.342;10.802;2022-09-03T11:51:36;25.90;99.90
11152;DHT22;5630;49.342;10.802;2022-09-03T11:56:33;25.80;99.90
11152;DHT22;5630;49.342;10.802;2022-09-03T11:59:22;25.80;99.90
11152;DHT22;5630;49.342;10.802;2022-09-03T12:01:49;25.80;99.90
11152;DHT22;5630;49.342;10.802;2022-09-03T12:04:24;25.90;99.90
11152;DHT22;5630;49.342;10.802;2022-09-03T12:15:20;25.80;99.90
11152;DHT22;5630;49.342;10.802;2022-09-03T12:17:52;25.80;99.90
11152;DHT22;5630;49.342;10.802;2022-09-03T12:20:38;25.80;99.90
11152;DHT22;5630;49.342;10.802;2022-09-03T12:23:04;25.80;99.90
11152;DHT22;5630;49.342;10.802;2022-09-03T12:25:29;25.80;99.90
11152;DHT22;5630;49.342;10.802;2022-09-03T12:27:59;25.70;99.90
11152;DHT22;5630;49.342;10.802;2022-09-03T12:30:25;25.60;99.90
11152;DHT22;5630;49.342;10.802;2022-09-03T12:33:04;25.60;99.90
11152;DHT22;5630;49.342;10.802;2022-09-03T12:35:30;25.50;99.90
11152;DHT22;5630;49.342;10.802;2022-09-03T12:37:55;25.50;99.90
11152;DHT22;5630;49.342;10.802;2022-09-03T12:40:25;25.40;99.90
11152;DHT22;5630;49.342;10.802;2022-09-03T12:42:52;25.40;99.90
11152;DHT22;5630;49.342;10.802;2022-09-03T12:45:21;25.40;99.90
11152;DHT22;5630;49.342;10.802;2022-09-03T12:47:47;25.30;99.90
11152;DHT22;5630;49.342;10.802;2022-09-03T12:50:19;25.20;99.90
11152;DHT22;5630;49.342;10.802;2022-09-03T12:52:57;25.00;99.90
11152;DHT22;5630;49.342;10.802;2022-09-03T12:55:43;24.90;99.90
11152;DHT22;5630;49.342;10.802;2022-09-03T12:58:11;24.80;99.90
11152;DHT22;5630;49.342;10.802;2022-09-03T13:00:44;24.70;99.90
11152;DHT22;5630;49.342;10.802;2022-09-03T13:05:43;24.60;99.90
11152;DHT22;5630;49.342;10.802;2022-09-03T13:08:17;24.60;99.90
11152;DHT22;5630;49.342;10.802;2022-09-03T13:10:44;24.60;99.90
11152;DHT22;5630;49.342;10.802;2022-09-03T13:14:27;24.60;99.90
11152;DHT22;5630;49.342;10.802;2022-09-03T13:30:20;24.30;99.90
11152;DHT22;5630;49.342;10.802;2022-09-03T13:32:51;24.10;99.90
11152;DHT22;5630;49.342;10.802;2022-09-03T13:40:40;23.90;99.90
11152;DHT22;5630;49.342;10.802;2022-09-03T13:45:56;23.90;99.90
11152;DHT22;5630;49.342;10.802;2022-09-03T13:48:33;23.80;99.90
11152;DHT22;5630;49.342;10.802;2022-09-03T13:56:53;23.70;99.90
11152;DHT22;5630;49.342;10.802;2022-09-03T14:05:01;23.60;99.90
11152;DHT22;5630;49.342;10.802;2022-09-03T14:07:57;23.60;99.90
11152;DHT22;5630;49.342;10.802;2022-09-03T14:13:23;23.50;99.90
11152;DHT22;5630;49.342;10.802;2022-09-03T14:16:41;23.50;99.90
11152;DHT22;5630;49.342;10.802;2022-09-03T14:22:00;23.40;99.90
11152;DHT22;5630;49.342;10.802;2022-09-03T14:24:49;23.30;99.90
11152;DHT22;5630;49.342;10.802;2022-09-03T14:27:27;23.20;99.90
11152;DHT22;5630;49.342;10.802;2022-09-03T14:29:58;23.00;99.90
11152;DHT22;5630;49.342;10.802;2022-09-03T14:32:31;23.00;99.90
11152;DHT22;5630;49.342;10.802;2022-09-03T14:35:04;23.00;99.90
11152;DHT22;5630;49.342;10.802;2022-09-03T14:37:46;22.90;99.90
11152;DHT22;5630;49.342;10.802;2022-09-03T15:07:05;22.30;99.90
11152;DHT22;5630;49.342;10.802;2022-09-03T15:11:31;22.00;99.90
11152;DHT22;5630;49.342;10.802;2022-09-03T15:14:17;21.90;99.90
11152;DHT22;5630;49.342;10.802;2022-09-03T15:17:04;21.70;99.90
11152;DHT22;5630;49.342;10.802;2022-09-03T15:29:02;20.70;99.90
11152;DHT22;5630;49.342;10.802;2022-09-03T15:31:54;20.50;99.90
11152;DHT22;5630;49.342;10.802;2022-09-03T15:34:42;20.30;99.90
11152;DHT22;5630;49.342;10.802;2022-09-03T15:42:51;19.80;99.90
11152;DHT22;5630;49.342;10.802;2022-09-03T15:48:25;19.60;99.90
11152;DHT22;5630;49.342;10.802;2022-09-03T15:51:24;19.50;99.90
11152;DHT22;5630;49.342;10.802;2022-09-03T15:54:15;19.50;99.90
11152;DHT22;5630;49.342;10.802;2022-09-03T15:57:17;19.40;99.90
11152;DHT22;5630;49.342;10.802;2022-09-03T16:02:18;19.30;99.90
11152;DHT22;5630;49.342;10.802;2022-09-03T16:10:17;19.10;99.90
11152;DHT22;5630;49.342;10.802;2022-09-03T16:13:28;18.90;99.90
11152;DHT22;5630;49.342;10.802;2022-09-03T16:16:01;18.80;99.90
11152;DHT22;5630;49.342;10.802;2022-09-03T16:18:40;18.80;99.90
11152;DHT22;5630;49.342;10.802;2022-09-03T16:21:13;18.80;99.90
11152;DHT22;5630;49.342;10.802;2022-09-03T16:23:55;18.80;99.90
11152;DHT22;5630;49.342;10.802;2022-09-03T16:26:35;18.70;99.90
11152;DHT22;5630;49.342;10.802;2022-09-03T16:29:25;18.70;99.90
11152;DHT22;5630;49.342;10.802;2022-09-03T16:32:12;18.70;99.90
11152;DHT22;5630;49.342;10.802;2022-09-03T16:43:27;18.60;99.90
11152;DHT22;5630;49.342;10.802;2022-09-03T16:46:12;18.60;99.90
11152;DHT22;5630;49.342;10.802;2022-09-03T16:51:50;18.50;99.90
11152;DHT22;5630;49.342;10.802;2022-09-03T17:00:12;18.30;99.90
11152;DHT22;5630;49.342;10.802;2022-09-03T17:03:00;18.10;99.90
11152;DHT22;5630;49.342;10.802;2022-09-03T17:06:02;18.10;99.90
11152;DHT22;5630;49.342;10.802;2022-09-03T17:17:08;18.00;99.90
11152;DHT22;5630;49.342;10.802;2022-09-03T17:19:58;17.90;99.90
11152;DHT22;5630;49.342;10.802;2022-09-03T17:27:51;17.80;99.90
11152;DHT22;5630;49.342;10.802;2022-09-03T17:36:16;17.60;99.90
11152;DHT22;5630;49.342;10.802;2022-09-03T17:44:31;17.50;99.90
11152;DHT22;5630;49.342;10.802;2022-09-03T17:49:57;17.40;99.90
11152;DHT22;5630;49.342;10.802;2022-09-03T17:52:39;17.40;99.90
11152;DHT22;5630;49.342;10.802;2022-09-03T17:55:23;17.30;99.90
11152;DHT22;5630;49.342;10.802;2022-09-03T17:58:02;17.30;99.90
11152;DHT22;5630;49.342;10.802;2022-09-03T18:09:01;17.20;99.90
11152;DHT22;5630;49.342;10.802;2022-09-03T18:11:40;17.20;99.90
11152;DHT22;5630;49.342;10.802;2022-09-03T18:14:29;17.20;99.90
11152;DHT22;5630;49.342;10.802;2022-09-03T18:17:27;17.20;99.90
11152;DHT22;5630;49.342;10.802;2022-09-03T18:20:02;17.10;99.90
11152;DHT22;5630;49.342;10.802;2022-09-03T18:23:45;17.20;99.90
11152;DHT22;5630;49.342;10.802;2022-09-03T18:26:11;17.10;99.90
11152;DHT22;5630;49.342;10.802;2022-09-03T18:29:19;17.00;99.90
11152;DHT22;5630;49.342;10.802;2022-09-03T18:32:05;16.90;99.90
11152;DHT22;5630;49.342;10.802;2022-09-03T18:34:49;16.80;99.90
11152;DHT22;5630;49.342;10.802;2022-09-03T18:37:34;16.80;99.90
11152;DHT22;5630;49.342;10.802;2022-09-03T18:40:27;16.80;99.90
11152;DHT22;5630;49.342;10.802;2022-09-03T18:43:24;16.80;99.90
11152;DHT22;5630;49.342;10.802;2022-09-03T18:49:45;16.80;99.90
11152;DHT22;5630;49.342;10.802;2022-09-03T18:52:47;16.80;99.90
11152;DHT22;5630;49.342;10.802;2022-09-03T18:59:08;16.80;99.90
11152;DHT22;5630;49.342;10.802;2022-09-03T19:01:54;16.70;99.90
11152;DHT22;5630;49.342;10.802;2022-09-03T19:05:18;16.60;99.90
11152;DHT22;5630;49.342;10.802;2022-09-03T19:08:20;16.70;99.90
11152;DHT22;5630;49.342;10.802;2022-09-03T19:14:28;16.60;99.90
11152;DHT22;5630;49.342;10.802;2022-09-03T19:17:50;16.50;99.90
11152;DHT22;5630;49.342;10.802;2022-09-03T19:20:30;16.50;99.90
11152;DHT22;5630;49.342;10.802;2022-09-03T19:23:15;16.50;99.90
11152;DHT22;5630;49.342;10.802;2022-09-03T19:26:22;16.40;99.90
11152;DHT22;5630;49.342;10.802;2022-09-03T19:29:25;16.40;99.90
11152;DHT22;5630;49.342;10.802;2022-09-03T19:32:18;16.40;99.90
11152;DHT22;5630;49.342;10.802;2022-09-03T19:35:16;16.40;99.90
11152;DHT22;5630;49.342;10.802;2022-09-03T19:38:19;16.30;99.90
11152;DHT22;5630;49.342;10.802;2022-09-03T19:41:07;16.30;99.90
11152;DHT22;5630;49.342;10.802;2022-09-03T19:46:59;16.20;99.90
11152;DHT22;5630;49.342;10.802;2022-09-03T19:53:05;16.10;99.90
11152;DHT22;5630;49.342;10.802;2022-09-03T19:56:02;16.00;99.90
11152;DHT22;5630;49.342;10.802;2022-09-03T19:58:55;16.00;99.90
11152;DHT22;5630;49.342;10.802;2022-09-03T20:01:41;16.00;99.90
11152;DHT22;5630;49.342;10.802;2022-09-03T20:07:37;15.90;99.90
11152;DHT22;5630;49.342;10.802;2022-09-03T20:10:23;15.90;99.90
11152;DHT22;5630;49.342;10.802;2022-09-03T20:13:06;15.80;99.90
11152;DHT22;5630;49.342;10.802;2022-09-03T20:15:52;15.80;99.90
11152;DHT22;5630;49.342;10.802;2022-09-03T20:29:09;15.70;99.90
11152;DHT22;5630;49.342;10.802;2022-09-03T20:31:57;15.70;99.90
11152;DHT22;5630;49.342;10.802;2022-09-03T20:37:07;15.60;99.90
11152;DHT22;5630;49.342;10.802;2022-09-03T20:40:03;15.60;99.90
11152;DHT22;5630;49.342;10.802;2022-09-03T20:48:03;15.50;99.90
11152;DHT22;5630;49.342;10.802;2022-09-03T20:53:32;15.50;99.90
11152;DHT22;5630;49.342;10.802;2022-09-03T20:59:11;15.50;99.90
11152;DHT22;5630;49.342;10.802;2022-09-03T21:10:57;15.40;99.90
11152;DHT22;5630;49.342;10.802;2022-09-03T21:13:37;15.30;99.90
11152;DHT22;5630;49.342;10.802;2022-09-03T21:16:28;15.30;99.90
11152;DHT22;5630;49.342;10.802;2022-09-03T21:19:10;15.30;99.90
11152;DHT22;5630;49.342;10.802;2022-09-03T21:24:50;15.30;99.90
11152;DHT22;5630;49.342;10.802;2022-09-03T21:27:19;15.20;99.90
11152;DHT22;5630;49.342;10.802;2022-09-03T21:30:04;15.20;99.90
11152;DHT22;5630;49.342;10.802;2022-09-03T21:32:46;15.20;99.90
11152;DHT22;5630;49.342;10.802;2022-09-03T21:35:27;15.20;99.90
11152;DHT22;5630;49.342;10.802;2022-09-03T21:38:02;15.20;99.90
11152;DHT22;5630;49.342;10.802;2022-09-03T21:40:28;15.20;99.90